KADS

Addison Airport

Dallas, Texas, USA
METAR KADS 181247Z 00000KT 10SM SCT180 05/04 A3011
Observed Flight Rules
Dec-18 @ 12:47 UTC (48 minutes ago) Visual Flight Rules
Visibility Clouds
10 miles
  • Scattered at 18,000' AGL
Temperatures Readings
Current 5°C / 41°F
Dewpoint 4°C / 39°F
Humidity 93%
Altimeter 30.11" Hg
Pressure 1020 hPa
Elevation 196
METAR KADS 181247Z 00000KT 10SM SCT180 05/04 A3011
Observed Flight Rules
Dec-18 @ 12:47 UTC
(48 minutes ago)
VFR
Clouds
  • Scattered at 18,000' AGL
Temperature Dewpoint
5°C / 41°F 4°C / 39°F
Humidity Altimeter Pressure
93% 30.11" Hg 1020 hPa